createdAt,value
2022-12-27T04:47:40.381Z,6.80
2022-12-27T04:50:32.058Z,6.90
2022-12-27T04:53:17.213Z,6.90
2022-12-27T04:55:43.862Z,6.90
2022-12-27T04:58:10.666Z,6.90
2022-12-27T05:03:08.016Z,7.10
2022-12-27T05:05:35.405Z,7.20
2022-12-27T05:08:21.276Z,7.20
2022-12-27T05:11:06.161Z,7.30
2022-12-27T05:13:51.233Z,7.30
2022-12-27T05:16:17.810Z,7.40
2022-12-27T05:18:44.416Z,7.30
2022-12-27T05:21:11.085Z,7.30
2022-12-27T05:24:01.762Z,7.30
2022-12-27T05:26:32.131Z,7.30
2022-12-27T05:28:59.760Z,7.30
2022-12-27T05:31:27.868Z,7.10
2022-12-27T05:33:54.493Z,6.70
2022-12-27T05:36:21.406Z,6.60
2022-12-27T05:38:47.982Z,6.70
2022-12-27T05:41:15.291Z,6.70
2022-12-27T05:43:42.095Z,6.60
2022-12-27T05:46:10.911Z,6.40
2022-12-27T05:48:37.923Z,6.40
2022-12-27T05:51:15.991Z,6.50
2022-12-27T05:53:42.707Z,6.50
2022-12-27T05:56:11.573Z,6.70
2022-12-27T05:58:39.217Z,6.80
2022-12-27T06:01:09.467Z,6.80
2022-12-27T06:03:36.339Z,6.80
2022-12-27T06:06:04.647Z,6.80
2022-12-27T06:08:31.808Z,6.70
2022-12-27T06:11:08.261Z,6.70
2022-12-27T06:13:36.086Z,6.80
2022-12-27T06:16:04.572Z,6.90
2022-12-27T06:18:32.923Z,6.90
2022-12-27T06:21:08.287Z,7.00
2022-12-27T06:23:35.353Z,7.00
2022-12-27T06:26:09.592Z,6.90
2022-12-27T06:28:36.252Z,7.00
2022-12-27T06:31:03.324Z,7.00
2022-12-27T06:33:30.581Z,6.80
2022-12-27T06:35:57.456Z,6.80
2022-12-27T06:38:24.125Z,6.80
2022-12-27T06:40:50.752Z,6.90
2022-12-27T06:43:17.331Z,6.90
2022-12-27T06:45:43.946Z,6.90
2022-12-27T06:48:10.642Z,6.90
2022-12-27T06:50:37.245Z,6.90
2022-12-27T06:53:03.883Z,7.00
2022-12-27T06:55:30.475Z,7.00
2022-12-27T06:57:57.152Z,6.90
2022-12-27T07:00:23.786Z,6.90
2022-12-27T07:02:50.478Z,6.60
2022-12-27T07:05:17.165Z,6.60
2022-12-27T07:07:43.815Z,6.60
2022-12-27T07:10:10.541Z,6.70
2022-12-27T07:12:37.399Z,6.60
2022-12-27T07:15:06.421Z,6.80
2022-12-27T07:17:35.933Z,6.90
2022-12-27T07:20:03.657Z,7.00
2022-12-27T07:22:30.463Z,7.00
2022-12-27T07:24:57.213Z,7.00
2022-12-27T07:27:23.784Z,7.00
2022-12-27T07:29:50.640Z,7.00
2022-12-27T07:32:17.315Z,6.90
2022-12-27T07:34:43.848Z,6.80
2022-12-27T07:37:10.539Z,6.70
2022-12-27T07:39:37.061Z,6.80
2022-12-27T07:42:08.174Z,6.80
2022-12-27T07:44:35.456Z,6.80
2022-12-27T07:47:02.157Z,6.90
2022-12-27T07:49:28.828Z,6.70
2022-12-27T07:51:55.579Z,6.70
2022-12-27T07:54:22.452Z,6.80
2022-12-27T07:56:49.112Z,6.80
2022-12-27T07:59:15.857Z,6.90
2022-12-27T08:02:15.035Z,6.90
2022-12-27T08:04:42.062Z,6.80
2022-12-27T08:07:14.587Z,6.90
2022-12-27T08:09:43.244Z,7.10
2022-12-27T08:12:10.450Z,7.20
2022-12-27T08:14:37.415Z,7.30
2022-12-27T08:17:15.529Z,7.40
2022-12-27T08:19:42.141Z,7.60
2022-12-27T08:22:10.674Z,7.60
2022-12-27T08:24:38.363Z,7.70
2022-12-27T08:27:05.042Z,7.90
2022-12-27T08:29:31.691Z,8.20
2022-12-27T08:31:58.417Z,8.60
2022-12-27T08:34:25.040Z,9.00
2022-12-27T08:36:56.123Z,9.40
2022-12-27T08:39:24.314Z,9.80
2022-12-27T08:41:53.339Z,10.00
2022-12-27T08:44:20.126Z,10.20
2022-12-27T08:46:47.048Z,10.20
2022-12-27T08:49:13.743Z,10.10
2022-12-27T08:51:41.447Z,9.90
2022-12-27T08:54:08.951Z,9.80
2022-12-27T08:56:35.816Z,9.40
2022-12-27T08:59:02.492Z,9.40
2022-12-27T09:01:29.357Z,9.20
2022-12-27T09:03:56.118Z,9.30
2022-12-27T09:06:24.207Z,9.40
2022-12-27T09:08:51.998Z,9.40
2022-12-27T09:11:27.720Z,9.40
2022-12-27T09:13:54.685Z,9.60
2022-12-27T09:16:24.419Z,10.30
2022-12-27T09:18:53.577Z,10.70
2022-12-27T09:21:22.173Z,10.30
2022-12-27T09:23:50.330Z,10.00
2022-12-27T09:26:20.322Z,10.10
2022-12-27T09:28:47.654Z,10.20
2022-12-27T09:31:15.802Z,9.80
2022-12-27T09:33:42.887Z,9.60
2022-12-27T09:36:12.331Z,9.70
2022-12-27T09:38:39.378Z,9.70
2022-12-27T09:41:12.526Z,9.70
2022-12-27T09:43:58.023Z,9.50
2022-12-27T09:46:31.870Z,9.50
2022-12-27T09:48:59.008Z,9.20
2022-12-27T09:51:51.042Z,9.00
2022-12-27T09:54:31.004Z,8.80
2022-12-27T09:59:49.375Z,9.60
2022-12-27T10:02:24.647Z,9.60
2022-12-27T10:05:19.287Z,9.60
2022-12-27T10:07:58.201Z,9.50
2022-12-27T10:10:38.299Z,9.50
2022-12-27T10:13:25.242Z,9.40
2022-12-27T10:16:08.587Z,9.50
2022-12-27T10:18:53.691Z,9.40
2022-12-27T10:21:23.419Z,9.20
2022-12-27T10:24:08.081Z,8.90
2022-12-27T10:26:34.972Z,8.70
2022-12-27T10:29:11.589Z,8.60
2022-12-27T10:31:42.745Z,8.60
2022-12-27T10:34:13.596Z,8.60
2022-12-27T10:36:41.507Z,8.60
2022-12-27T10:39:18.785Z,8.70
2022-12-27T10:41:57.485Z,9.00
2022-12-27T10:44:24.312Z,9.40
2022-12-27T10:46:53.737Z,9.90
2022-12-27T10:49:24.765Z,10.30
2022-12-27T10:51:54.004Z,10.90
2022-12-27T10:54:26.528Z,11.20
2022-12-27T10:56:54.460Z,11.30
2022-12-27T10:59:28.929Z,11.40
2022-12-27T11:02:01.740Z,11.40
2022-12-27T11:04:30.971Z,11.40
2022-12-27T11:06:59.816Z,11.30
2022-12-27T11:09:30.883Z,11.30
2022-12-27T11:12:18.481Z,12.10
2022-12-27T11:14:54.307Z,13.90
2022-12-27T11:17:22.635Z,15.70
2022-12-27T11:19:49.278Z,17.00
2022-12-27T11:22:16.208Z,16.70
2022-12-27T11:24:45.458Z,16.20
2022-12-27T11:27:21.140Z,15.30
2022-12-27T11:29:47.927Z,14.20
2022-12-27T11:32:14.525Z,13.70
2022-12-27T11:34:44.079Z,13.50
2022-12-27T11:37:16.193Z,13.40
2022-12-27T11:39:42.785Z,12.90
2022-12-27T11:42:16.671Z,12.70
2022-12-27T11:44:46.079Z,12.10
2022-12-27T11:47:18.678Z,11.80
2022-12-27T11:49:55.369Z,11.80
2022-12-27T11:52:41.990Z,11.90
2022-12-27T11:55:11.243Z,11.50
2022-12-27T11:58:07.297Z,11.10
2022-12-27T12:00:43.908Z,10.40
2022-12-27T12:03:35.103Z,10.30
2022-12-27T12:06:15.708Z,10.30
2022-12-27T12:08:48.599Z,10.40
2022-12-27T12:11:39.502Z,10.50
2022-12-27T12:14:06.153Z,10.70
2022-12-27T12:16:40.651Z,10.90
2022-12-27T12:19:42.494Z,10.90
2022-12-27T12:22:33.252Z,10.80
2022-12-27T12:25:18.323Z,11.00
2022-12-27T12:27:50.948Z,10.80
2022-12-27T12:30:27.641Z,10.50
2022-12-27T12:33:12.004Z,10.50
2022-12-27T12:35:53.778Z,10.50
2022-12-27T12:38:32.279Z,10.60
2022-12-27T12:41:04.924Z,10.50
2022-12-27T12:43:56.796Z,10.60
2022-12-27T12:46:54.829Z,10.40
2022-12-27T12:49:39.483Z,10.20
2022-12-27T12:52:29.024Z,10.60
2022-12-27T12:55:04.496Z,10.90
2022-12-27T12:57:49.094Z,10.80
2022-12-27T13:00:33.705Z,10.90
2022-12-27T13:03:38.395Z,11.00
2022-12-27T13:06:41.968Z,11.00
2022-12-27T13:09:13.696Z,11.10
2022-12-27T13:12:03.452Z,11.30
2022-12-27T13:14:48.699Z,11.50
2022-12-27T13:17:22.404Z,11.60
2022-12-27T13:20:08.040Z,11.60
2022-12-27T13:23:02.555Z,11.30
2022-12-27T13:25:31.851Z,11.20
2022-12-27T13:28:29.166Z,11.20
2022-12-27T13:31:02.349Z,11.20
2022-12-27T13:33:47.289Z,10.90
2022-12-27T13:36:13.845Z,10.60
2022-12-27T13:39:03.439Z,10.50
2022-12-27T13:41:41.950Z,10.50
2022-12-27T13:44:08.521Z,10.60
2022-12-27T13:46:42.646Z,10.60
2022-12-27T13:49:27.999Z,10.60
2022-12-27T13:52:11.784Z,10.50
2022-12-27T13:54:58.596Z,10.00
2022-12-27T13:57:44.039Z,9.80
2022-12-27T14:00:17.220Z,9.70
2022-12-27T14:03:00.141Z,9.80
2022-12-27T14:05:39.252Z,9.70
2022-12-27T14:08:40.070Z,9.70
2022-12-27T14:11:32.003Z,9.60
2022-12-27T14:13:59.539Z,9.60
2022-12-27T14:16:37.216Z,9.50
2022-12-27T14:19:21.816Z,9.50
2022-12-27T14:22:01.129Z,9.30
2022-12-27T14:24:46.244Z,9.30
2022-12-27T14:27:37.668Z,9.30
2022-12-27T14:30:25.052Z,9.40
2022-12-27T14:33:03.551Z,9.30
2022-12-27T14:35:49.018Z,8.90
2022-12-27T14:38:37.302Z,8.80
2022-12-27T14:41:41.707Z,8.70
2022-12-27T14:44:27.031Z,8.90
2022-12-27T14:47:05.881Z,9.00
2022-12-27T14:49:48.146Z,8.90
2022-12-27T14:52:33.611Z,8.90
2022-12-27T14:55:09.289Z,9.10
2022-12-27T14:57:51.522Z,9.00
2022-12-27T15:00:19.833Z,9.10
2022-12-27T15:02:52.758Z,9.20
2022-12-27T15:05:25.889Z,9.30
2022-12-27T15:08:01.529Z,9.10
2022-12-27T15:10:37.221Z,9.00
2022-12-27T15:13:15.405Z,9.20
2022-12-27T15:16:00.354Z,9.10
2022-12-27T15:18:42.910Z,9.10
2022-12-27T15:21:12.194Z,9.00
2022-12-27T15:23:49.032Z,9.00
2022-12-27T15:26:15.520Z,9.10
2022-12-27T15:29:00.695Z,9.10
2022-12-27T15:31:27.412Z,9.10
2022-12-27T15:33:56.714Z,9.10
2022-12-27T15:36:36.719Z,9.10
2022-12-27T15:39:03.998Z,8.90
2022-12-27T15:41:30.472Z,8.80
2022-12-27T15:43:57.033Z,8.60
2022-12-27T15:46:29.739Z,8.60
2022-12-27T15:49:04.907Z,8.60
2022-12-27T15:51:53.299Z,8.50
2022-12-27T15:54:57.604Z,8.40
2022-12-27T15:57:44.294Z,8.40
2022-12-27T16:00:14.265Z,8.30
2022-12-27T16:02:44.043Z,8.10
2022-12-27T16:05:12.609Z,8.00
2022-12-27T16:07:39.395Z,7.90
2022-12-27T16:10:24.796Z,7.90
2022-12-27T16:12:51.674Z,7.80
2022-12-27T16:15:37.727Z,7.70
2022-12-27T16:18:05.529Z,7.60
2022-12-27T16:20:32.937Z,7.60
2022-12-27T16:23:06.141Z,7.50
2022-12-27T16:25:33.832Z,7.60
2022-12-27T16:28:02.532Z,7.50
2022-12-27T16:30:48.243Z,7.40
2022-12-27T16:33:27.256Z,7.30
2022-12-27T16:36:02.749Z,7.40
2022-12-27T16:38:29.911Z,7.20
2022-12-27T16:41:14.460Z,7.10
2022-12-27T16:43:59.793Z,7.10
2022-12-27T16:46:51.080Z,7.00
2022-12-27T16:49:36.506Z,7.00
2022-12-27T16:52:03.078Z,6.80
2022-12-27T16:54:48.007Z,6.70
2022-12-27T16:57:23.754Z,6.80
2022-12-27T17:00:21.705Z,6.80
2022-12-27T17:02:48.728Z,6.90
2022-12-27T17:05:15.323Z,6.90
2022-12-27T17:07:49.192Z,7.00
2022-12-27T17:10:25.005Z,7.00
2022-12-27T17:12:57.883Z,7.00
2022-12-27T17:15:24.795Z,7.00
2022-12-27T17:17:53.540Z,7.00
2022-12-27T17:20:21.274Z,6.90
2022-12-27T17:22:48.949Z,6.80
2022-12-27T17:25:16.329Z,6.90
2022-12-27T17:27:52.049Z,6.70
2022-12-27T17:30:22.376Z,6.80
2022-12-27T17:33:04.344Z,6.80
2022-12-27T17:35:31.710Z,6.70
2022-12-27T17:38:07.327Z,6.50
2022-12-27T17:40:49.728Z,6.50
2022-12-27T17:43:42.581Z,6.20
2022-12-27T17:46:14.935Z,6.10
2022-12-27T17:48:42.310Z,6.10
2022-12-27T17:51:19.783Z,6.20
2022-12-27T17:54:05.360Z,6.10
2022-12-27T17:56:59.997Z,6.20
2022-12-27T17:59:27.843Z,6.10
2022-12-27T18:01:57.235Z,6.00
2022-12-27T18:04:26.185Z,6.00
2022-12-27T18:06:57.132Z,6.00
2022-12-27T18:09:30.840Z,5.90
2022-12-27T18:11:57.551Z,5.70
2022-12-27T18:14:24.211Z,5.60
2022-12-27T18:16:50.798Z,5.50
2022-12-27T18:19:20.224Z,5.40
2022-12-27T18:21:57.801Z,5.30
2022-12-27T18:24:26.683Z,5.40
2022-12-27T18:27:06.408Z,5.50
2022-12-27T18:29:33.587Z,5.50
2022-12-27T18:32:05.202Z,5.50
2022-12-27T18:34:44.687Z,5.40
2022-12-27T18:37:13.204Z,5.20
2022-12-27T18:39:41.210Z,5.30
2022-12-27T18:42:16.936Z,5.30
2022-12-27T18:44:53.289Z,5.20
2022-12-27T18:47:21.831Z,5.10
2022-12-27T18:50:00.537Z,5.00
2022-12-27T18:52:34.822Z,5.10
2022-12-27T18:55:18.694Z,5.20
2022-12-27T18:57:45.505Z,5.20
2022-12-27T19:00:12.087Z,5.00
2022-12-27T19:02:38.796Z,4.90
2022-12-27T19:05:20.648Z,4.90
2022-12-27T19:07:58.612Z,4.80
2022-12-27T19:10:27.758Z,4.80
2022-12-27T19:12:55.508Z,4.90
2022-12-27T19:15:48.397Z,5.00
2022-12-27T19:18:28.969Z,5.00
2022-12-27T19:20:57.342Z,5.00
2022-12-27T19:23:34.669Z,5.00
2022-12-27T19:26:09.038Z,4.90
2022-12-27T19:28:36.233Z,4.80
2022-12-27T19:31:17.387Z,4.70
2022-12-27T19:33:46.978Z,4.70
2022-12-27T19:36:13.760Z,4.70
2022-12-27T19:38:47.614Z,4.80
2022-12-27T19:41:14.890Z,4.60
2022-12-27T19:43:45.090Z,4.50
2022-12-27T19:46:12.338Z,4.50
2022-12-27T19:48:39.233Z,4.40
2022-12-27T19:51:06.645Z,4.30
2022-12-27T19:53:38.409Z,4.30
2022-12-27T19:56:05.596Z,4.30
2022-12-27T19:58:32.146Z,4.20
2022-12-27T20:00:59.632Z,4.10
2022-12-27T20:03:26.318Z,4.20
2022-12-27T20:06:11.587Z,4.30
2022-12-27T20:08:42.874Z,4.20
2022-12-27T20:11:13.738Z,4.10
2022-12-27T20:13:40.380Z,4.20
2022-12-27T20:16:07.286Z,4.20
2022-12-27T20:18:34.286Z,4.20
2022-12-27T20:21:00.831Z,4.20
2022-12-27T20:23:27.380Z,4.10
2022-12-27T20:25:53.894Z,4.10
2022-12-27T20:28:20.499Z,4.10
2022-12-27T20:30:47.206Z,4.00
2022-12-27T20:33:13.997Z,4.00
2022-12-27T20:35:40.963Z,4.00
2022-12-27T20:38:08.946Z,3.90
2022-12-27T20:40:35.609Z,3.90
2022-12-27T20:43:02.171Z,4.00
2022-12-27T20:45:28.798Z,3.90
2022-12-27T20:47:55.360Z,3.60
2022-12-27T20:50:21.933Z,3.60
2022-12-27T20:52:48.574Z,3.60
2022-12-27T20:55:15.177Z,3.50
2022-12-27T20:57:42.480Z,3.60
2022-12-27T21:00:09.549Z,3.60
2022-12-27T21:02:38.003Z,3.60
2022-12-27T21:05:04.982Z,3.70
2022-12-27T21:07:31.616Z,3.70
2022-12-27T21:09:58.250Z,3.70
2022-12-27T21:12:24.794Z,3.80
2022-12-27T21:14:51.365Z,3.80
2022-12-27T21:17:17.913Z,3.80
2022-12-27T21:19:44.434Z,3.90
2022-12-27T21:22:10.949Z,4.10
2022-12-27T21:24:37.517Z,4.10
2022-12-27T21:27:04.099Z,4.10
2022-12-27T21:29:30.660Z,4.20
2022-12-27T21:31:57.228Z,4.00
2022-12-27T21:34:23.846Z,4.00
2022-12-27T21:36:52.270Z,4.10
2022-12-27T21:39:19.013Z,4.10
2022-12-27T21:41:45.590Z,4.10
2022-12-27T21:44:12.537Z,4.00
2022-12-27T21:46:40.298Z,3.90
2022-12-27T21:49:13.469Z,3.90
2022-12-27T21:51:41.205Z,3.90
2022-12-27T21:54:08.166Z,4.00
2022-12-27T21:56:34.803Z,3.90
2022-12-27T21:59:02.964Z,3.90
2022-12-27T22:01:30.822Z,3.70
2022-12-27T22:04:17.305Z,3.70
2022-12-27T22:06:47.083Z,3.70
2022-12-27T22:09:14.772Z,3.70
2022-12-27T22:11:41.306Z,3.60
2022-12-27T22:14:07.892Z,3.60
2022-12-27T22:16:35.422Z,3.60
2022-12-27T22:19:05.684Z,3.70
2022-12-27T22:21:33.498Z,3.70
2022-12-27T22:24:01.661Z,3.80
2022-12-27T22:26:33.047Z,3.70
2022-12-27T22:28:59.623Z,3.80
2022-12-27T22:31:35.187Z,3.70
2022-12-27T22:34:03.470Z,3.60
2022-12-27T22:36:30.199Z,3.60
2022-12-27T22:38:57.674Z,3.60
2022-12-27T22:41:28.533Z,3.60
2022-12-27T22:43:59.294Z,3.60
2022-12-27T22:46:26.891Z,3.60
2022-12-27T22:48:54.765Z,3.60
2022-12-27T22:51:25.705Z,3.40
2022-12-27T22:53:52.388Z,3.60
2022-12-27T22:56:20.509Z,3.60
2022-12-27T22:58:47.670Z,3.60
2022-12-27T23:01:15.523Z,3.40
2022-12-27T23:03:42.776Z,3.40
2022-12-27T23:06:13.824Z,3.30
2022-12-27T23:08:42.250Z,3.30
2022-12-27T23:11:15.618Z,3.30
2022-12-27T23:13:42.270Z,3.30
2022-12-27T23:16:09.471Z,3.00
2022-12-27T23:18:42.499Z,3.10
2022-12-27T23:21:20.047Z,3.10
2022-12-27T23:23:50.680Z,3.10
2022-12-27T23:26:17.863Z,3.10
2022-12-27T23:28:45.587Z,3.10
2022-12-27T23:31:13.119Z,3.10
2022-12-27T23:33:41.714Z,3.00
2022-12-27T23:36:08.411Z,3.10
2022-12-27T23:38:35.251Z,2.90
2022-12-27T23:41:05.634Z,2.90
2022-12-27T23:43:54.326Z,3.00
2022-12-27T23:46:28.317Z,3.00
2022-12-27T23:48:56.459Z,3.00
2022-12-27T23:51:23.564Z,3.00
2022-12-27T23:53:50.786Z,3.00
2022-12-27T23:56:20.747Z,3.00
2022-12-27T23:58:48.734Z,3.10
